aviador You're here:

YFRT Decoded Metar

FORREST in _UNIDENTIFIED
Report Time2017-12-11 00:00:00
UTC Time2017-12-11 00:29:47
Flight Rules unknown UNKNOWN
Wind020° at 19 kt
W.Decomp.*RWY 36: 18.2 kt HW 5.6 kt RCW
RWY 09: 5.6 kt HW 18.2 kt LCW
W.Rank020° ranks 28
Current wind is above 020° avg. (9.5)
VisibilityN/A
Phenomena:N/A
Clouds:N/A
Expected CloudBase > 12,400 ft AGL from Temp-Dew spread
CeilingNone
Temp33°C (ISA +19)
Dew Point02°C (14% RH)
Heat Index30.7°C
AAT24.5°C
QNH1016 hPa
Density Alt2,677 ft
Elevation512 ft
Report Wrong Elevation
Raw Report
METAR YFRT 110000Z AUTO 02019KT //// // ////// 33/02 Q1016=

Extra information for YFRT:More info

Metar Taf Metar & Taf Last 4 Metars F.Rules Stats Wind Profile Meteogram Temp Stats Airport Information Weather charts Add Link Nearby VenuesMetar ALERT Operation Metar Decoded Social comments